Time;durP1;ratioP1;P1;durP2;ratioP2;P2;SDS_P1;SDS_P2;PMS_P1;PMS_P2;Temp;Humidity;BMP_temperature;BMP_pressure;BME280_temperature;BME280_humidity;BME280_pressure;Samples;Min_cycle;Max_cycle;Signal;HPM_P1;HPM_P2
2023/05/05 00:01:52;;;;;;;;;1.00;1.00;;;;;;;;6310881;22;10390;-73
2023/05/05 00:04:21;;;;;;;;;1.00;0.00;;;;;;;;6310233;22;8776;-72
2023/05/05 00:06:46;;;;;;;;;0.00;0.00;;;;;;;;6310234;22;8709;-73
2023/05/05 00:09:12;;;;;;;;;0.00;0.00;;;;;;;;6310650;22;10347;-72
2023/05/05 00:11:37;;;;;;;;;1.00;0.00;;;;;;;;6282763;22;9575;-71
2023/05/05 00:14:02;;;;;;;;;1.25;0.75;;;;;;;;6310566;22;8771;-72
2023/05/05 00:16:27;;;;;;;;;1.50;1.00;;;;;;;;6310105;22;8875;-72
2023/05/05 00:18:53;;;;;;;;;2.00;2.00;;;;;;;;6310592;22;8799;-73
2023/05/05 00:21:18;;;;;;;;;2.00;1.25;;;;;;;;6310710;22;8806;-73
2023/05/05 00:23:43;;;;;;;;;2.00;1.00;;;;;;;;6310028;22;8776;-73
2023/05/05 00:26:08;;;;;;;;;1.00;1.00;;;;;;;;6310467;22;8752;-71
2023/05/05 00:28:33;;;;;;;;;1.00;0.50;;;;;;;;6309551;22;9323;-71
2023/05/05 00:30:59;;;;;;;;;1.00;1.00;;;;;;;;6283624;22;8803;-71
2023/05/05 00:33:24;;;;;;;;;1.00;1.00;;;;;;;;6311088;22;8764;-71
2023/05/05 00:35:50;;;;;;;;;2.00;2.00;;;;;;;;6311418;22;8748;-70
2023/05/05 00:38:15;;;;;;;;;1.00;1.00;;;;;;;;6311294;22;8802;-72
2023/05/05 00:40:41;;;;;;;;;1.00;1.00;;;;;;;;6311582;22;8950;-73
2023/05/05 00:43:06;;;;;;;;;1.00;1.00;;;;;;;;6311056;22;8737;-74
2023/05/05 00:45:31;;;;;;;;;1.00;1.00;;;;;;;;6311428;22;8733;-72
2023/05/05 00:47:58;;;;;;;;;1.50;1.00;;;;;;;;6312095;22;8771;-71
2023/05/05 00:50:24;;;;;;;;;2.00;1.50;;;;;;;;6311265;22;8720;-72
2023/05/05 00:52:51;;;;;;;;;1.00;1.00;;;;;;;;6311331;22;10495;-72
2023/05/05 00:55:17;;;;;;;;;2.75;1.00;;;;;;;;6283190;22;10556;-72
2023/05/05 00:57:42;;;;;;;;;2.25;1.50;;;;;;;;6311313;22;11291;-72
2023/05/05 01:00:08;;;;;;;;;1.25;1.25;;;;;;;;6311517;22;8760;-73
2023/05/05 01:02:34;;;;;;;;;0.25;0.25;;;;;;;;6310868;22;8748;-73
2023/05/05 01:04:59;;;;;;;;;0.00;0.00;;;;;;;;6311573;22;8756;-72
2023/05/05 01:07:33;;;;;;;;;1.00;1.00;;;;;;;;6283150;22;8895;-72
2023/05/05 01:09:58;;;;;;;;;2.00;2.00;;;;;;;;6311307;22;8798;-72
2023/05/05 01:12:43;;;;;;;;;1.00;1.00;;;;;;;;6311522;22;10513;-72
2023/05/05 01:15:22;;;;;;;;;1.75;1.75;;;;;;;;6310779;22;8725;-72
2023/05/05 01:17:54;;;;;;;;;3.25;2.00;;;;;;;;6311328;22;10774;-72
2023/05/05 01:20:22;;;;;;;;;2.00;1.00;;;;;;;;6310436;22;10666;-72
2023/05/05 01:22:59;;;;;;;;;1.00;1.00;;;;;;;;6282581;22;10582;-72
2023/05/05 01:25:29;;;;;;;;;1.00;1.00;;;;;;;;6311625;22;10459;-72
2023/05/05 01:27:58;;;;;;;;;3.00;1.00;;;;;;;;6311618;22;10391;-72
2023/05/05 01:30:41;;;;;;;;;1.25;1.25;;;;;;;;6310326;22;10837;-72
2023/05/05 01:33:08;;;;;;;;;0.00;0.00;;;;;;;;6311106;22;10588;-72
2023/05/05 01:35:44;;;;;;;;;2.25;2.25;;;;;;;;6311118;22;10583;-72
2023/05/05 01:38:15;;;;;;;;;3.00;3.00;;;;;;;;6311183;22;10787;-72
2023/05/05 01:40:45;;;;;;;;;2.00;1.75;;;;;;;;6310482;22;10743;-73
2023/05/05 01:43:12;;;;;;;;;3.75;2.00;;;;;;;;6310902;22;10802;-72
2023/05/05 01:45:39;;;;;;;;;1.00;1.00;;;;;;;;6311093;22;10737;-73
2023/05/05 01:48:05;;;;;;;;;4.50;3.00;;;;;;;;6310873;22;10724;-72
2023/05/05 01:50:30;;;;;;;;;1.00;1.00;;;;;;;;6311034;22;10712;-73
2023/05/05 01:52:56;;;;;;;;;1.00;1.00;;;;;;;;6310698;22;8789;-73
2023/05/05 01:55:23;;;;;;;;;2.50;2.50;;;;;;;;6310561;22;8741;-72
2023/05/05 01:57:49;;;;;;;;;2.00;2.00;;;;;;;;6310848;22;8728;-72
2023/05/05 02:00:18;;;;;;;;;1.50;1.50;;;;;;;;6310788;22;10886;-72
2023/05/05 02:02:45;;;;;;;;;3.25;2.00;;;;;;;;6310735;22;10606;-73
2023/05/05 02:05:11;;;;;;;;;2.50;1.75;;;;;;;;6283132;22;11624;-73
2023/05/05 02:07:37;;;;;;;;;1.00;1.00;;;;;;;;6311130;22;10555;-72
2023/05/05 02:10:03;;;;;;;;;2.00;2.00;;;;;;;;6282718;22;10741;-72
2023/05/05 02:12:28;;;;;;;;;2.25;1.50;;;;;;;;6311098;22;8716;-72
2023/05/05 02:14:56;;;;;;;;;1.50;0.50;;;;;;;;6310751;22;10648;-72
2023/05/05 02:17:22;;;;;;;;;2.00;2.00;;;;;;;;6310878;22;8736;-72
2023/05/05 02:19:49;;;;;;;;;2.00;2.00;;;;;;;;6310785;22;10854;-72
2023/05/05 02:22:15;;;;;;;;;1.00;1.00;;;;;;;;6282580;22;9619;-72
2023/05/05 02:24:41;;;;;;;;;4.00;4.00;;;;;;;;6309809;22;10493;-72
2023/05/05 02:27:07;;;;;;;;;3.00;2.50;;;;;;;;6310987;22;10783;-72
2023/05/05 02:29:39;;;;;;;;;1.00;1.00;;;;;;;;6310912;22;8787;-72
2023/05/05 02:32:08;;;;;;;;;3.75;2.75;;;;;;;;6310071;22;10505;-72
2023/05/05 02:34:35;;;;;;;;;3.75;3.00;;;;;;;;6310549;22;10485;-72
2023/05/05 02:37:02;;;;;;;;;1.25;0.00;;;;;;;;6310948;22;10567;-72
2023/05/05 02:39:32;;;;;;;;;1.75;1.75;;;;;;;;6310163;22;10617;-72
2023/05/05 02:42:01;;;;;;;;;1.00;1.00;;;;;;;;6310409;22;10925;-73
2023/05/05 02:44:27;;;;;;;;;3.50;2.00;;;;;;;;6310430;22;10493;-72
2023/05/05 02:46:53;;;;;;;;;1.00;1.00;;;;;;;;6310597;22;10569;-72
2023/05/05 02:49:18;;;;;;;;;1.25;1.25;;;;;;;;6310731;22;10672;-73
2023/05/05 02:51:43;;;;;;;;;3.25;2.25;;;;;;;;6282789;22;9562;-72
2023/05/05 02:54:09;;;;;;;;;1.50;1.00;;;;;;;;6309680;22;8765;-73
2023/05/05 02:56:42;;;;;;;;;5.00;3.25;;;;;;;;6310167;22;8764;-72
2023/05/05 02:59:07;;;;;;;;;2.25;1.00;;;;;;;;6309986;22;8941;-73
2023/05/05 03:01:38;;;;;;;;;2.80;1.00;;;;;;;;6282936;22;10612;-72
2023/05/05 03:04:06;;;;;;;;;3.25;2.00;;;;;;;;6310847;22;8737;-72
2023/05/05 03:06:35;;;;;;;;;2.75;1.75;;;;;;;;6310672;22;11256;-72
2023/05/05 03:09:05;;;;;;;;;2.00;2.00;;;;;;;;6310351;22;11325;-73
2023/05/05 03:11:45;;;;;;;;;2.00;2.00;;;;;;;;6310382;22;10754;-72
2023/05/05 03:14:12;;;;;;;;;1.50;1.50;;;;;;;;6282525;22;10824;-73
2023/05/05 03:16:38;;;;;;;;;4.25;3.50;;;;;;;;6310479;22;11457;-72
2023/05/05 03:19:04;;;;;;;;;2.25;1.00;;;;;;;;6310611;22;10799;-72
2023/05/05 03:21:30;;;;;;;;;2.50;2.50;;;;;;;;6282616;22;11403;-73
2023/05/05 03:23:56;;;;;;;;;1.50;1.50;;;;;;;;6310181;22;10571;-73
2023/05/05 03:26:21;;;;;;;;;2.00;0.75;;;;;;;;6310501;22;10581;-73
2023/05/05 03:28:47;;;;;;;;;2.00;2.00;;;;;;;;6311114;22;8878;-72
2023/05/05 03:31:12;;;;;;;;;1.50;1.50;;;;;;;;6310705;22;8764;-72
2023/05/05 03:33:37;;;;;;;;;2.50;2.50;;;;;;;;6309952;22;8779;-72
2023/05/05 03:36:02;;;;;;;;;0.00;0.00;;;;;;;;6310452;22;8780;-72
2023/05/05 03:38:27;;;;;;;;;1.00;1.00;;;;;;;;6310063;22;8760;-72
2023/05/05 03:40:53;;;;;;;;;1.00;1.00;;;;;;;;6310660;22;8889;-72
2023/05/05 03:43:18;;;;;;;;;3.75;3.75;;;;;;;;6310787;22;8748;-73
2023/05/05 03:45:43;;;;;;;;;1.75;1.75;;;;;;;;6310751;22;9782;-72
2023/05/05 03:48:09;;;;;;;;;2.00;2.00;;;;;;;;6309839;22;9443;-72
2023/05/05 03:50:34;;;;;;;;;2.50;1.25;;;;;;;;6310599;22;8764;-73
2023/05/05 03:52:59;;;;;;;;;2.00;2.00;;;;;;;;6310095;22;8744;-72
2023/05/05 03:55:24;;;;;;;;;3.75;2.50;;;;;;;;6310499;22;8771;-72
2023/05/05 03:57:50;;;;;;;;;3.25;3.00;;;;;;;;6310450;22;8756;-73
2023/05/05 04:00:15;;;;;;;;;1.00;1.00;;;;;;;;6310209;22;8760;-73
2023/05/05 04:02:40;;;;;;;;;3.00;3.00;;;;;;;;6310639;22;8758;-72
2023/05/05 04:05:06;;;;;;;;;2.75;2.00;;;;;;;;6310221;22;8795;-72
2023/05/05 04:07:31;;;;;;;;;1.00;1.00;;;;;;;;6309854;22;8841;-72
2023/05/05 04:09:56;;;;;;;;;2.75;2.75;;;;;;;;6310302;22;8752;-73
2023/05/05 04:12:21;;;;;;;;;1.50;1.50;;;;;;;;6310321;22;8858;-72
2023/05/05 04:14:47;;;;;;;;;4.00;2.00;;;;;;;;6310502;22;8752;-70
2023/05/05 04:17:12;;;;;;;;;2.00;2.00;;;;;;;;6310397;22;8752;-71
2023/05/05 04:19:37;;;;;;;;;3.75;3.00;;;;;;;;6310157;22;8776;-72
2023/05/05 04:22:02;;;;;;;;;4.00;2.50;;;;;;;;6310054;22;8740;-73
2023/05/05 04:24:27;;;;;;;;;4.75;4.50;;;;;;;;6309867;22;8779;-71
2023/05/05 04:26:52;;;;;;;;;5.25;3.75;;;;;;;;6310112;22;8851;-72
2023/05/05 04:29:18;;;;;;;;;2.00;2.00;;;;;;;;6310094;22;8888;-72
2023/05/05 04:31:43;;;;;;;;;5.00;3.00;;;;;;;;6309620;22;8780;-72
2023/05/05 04:34:09;;;;;;;;;3.25;3.25;;;;;;;;6309772;22;8760;-73
2023/05/05 04:36:34;;;;;;;;;3.25;3.25;;;;;;;;6309312;22;8764;-72
2023/05/05 04:38:59;;;;;;;;;3.00;3.00;;;;;;;;6310269;22;8897;-72
2023/05/05 04:41:24;;;;;;;;;2.50;2.50;;;;;;;;6310188;22;8733;-72
2023/05/05 04:43:49;;;;;;;;;1.75;1.75;;;;;;;;6310385;22;8741;-73
2023/05/05 04:46:15;;;;;;;;;4.00;3.00;;;;;;;;6310187;22;8867;-72
2023/05/05 04:48:40;;;;;;;;;2.00;2.00;;;;;;;;6310075;22;8782;-73
2023/05/05 04:51:05;;;;;;;;;4.25;3.00;;;;;;;;6309750;22;8791;-73
2023/05/05 04:53:31;;;;;;;;;6.25;3.00;;;;;;;;6309992;22;9481;-72
2023/05/05 04:55:56;;;;;;;;;1.75;1.75;;;;;;;;6309363;22;9530;-73
2023/05/05 04:58:21;;;;;;;;;3.50;3.50;;;;;;;;6310252;22;8752;-73
2023/05/05 05:00:46;;;;;;;;;2.25;2.25;;;;;;;;6281743;22;8910;-73
2023/05/05 05:03:11;;;;;;;;;2.50;2.00;;;;;;;;6310080;22;8775;-72
2023/05/05 05:05:37;;;;;;;;;7.50;4.50;;;;;;;;6309636;22;8841;-72
2023/05/05 05:08:02;;;;;;;;;8.50;2.75;;;;;;;;6310182;22;8744;-72
2023/05/05 05:10:27;;;;;;;;;5.50;3.75;;;;;;;;6309711;22;8768;-72
2023/05/05 05:12:52;;;;;;;;;4.00;4.00;;;;;;;;6310207;22;8772;-72
2023/05/05 05:15:17;;;;;;;;;2.50;1.75;;;;;;;;6310045;22;8744;-72
2023/05/05 05:17:43;;;;;;;;;4.25;3.25;;;;;;;;6312510;22;9567;-72
2023/05/05 05:20:08;;;;;;;;;5.00;4.00;;;;;;;;6312908;22;8857;-72
2023/05/05 05:22:33;;;;;;;;;1.00;1.00;;;;;;;;6313123;22;8802;-73
2023/05/05 05:24:58;;;;;;;;;3.00;2.00;;;;;;;;6313259;22;8768;-72
2023/05/05 05:27:24;;;;;;;;;2.75;2.50;;;;;;;;6313214;22;8772;-73
2023/05/05 05:29:50;;;;;;;;;1.00;1.00;;;;;;;;6285329;22;8760;-72
2023/05/05 05:32:15;;;;;;;;;2.75;2.75;;;;;;;;6313000;22;8768;-72
2023/05/05 05:34:40;;;;;;;;;4.00;3.00;;;;;;;;6284735;22;8857;-73
2023/05/05 05:37:05;;;;;;;;;3.00;3.00;;;;;;;;6313288;22;8772;-73
2023/05/05 05:39:30;;;;;;;;;2.00;2.00;;;;;;;;6312540;22;8775;-72
2023/05/05 05:41:56;;;;;;;;;2.00;2.00;;;;;;;;6313246;22;8788;-72
2023/05/05 05:44:21;;;;;;;;;3.75;3.00;;;;;;;;6313093;22;8752;-72
2023/05/05 05:46:46;;;;;;;;;2.25;2.00;;;;;;;;6312729;22;8764;-72
2023/05/05 05:49:11;;;;;;;;;1.75;1.75;;;;;;;;6312806;22;8764;-72
2023/05/05 05:51:36;;;;;;;;;3.25;3.00;;;;;;;;6312548;22;8858;-72
2023/05/05 05:54:02;;;;;;;;;2.00;2.00;;;;;;;;6310782;22;8818;-72
2023/05/05 05:56:27;;;;;;;;;3.00;2.25;;;;;;;;6283622;22;8780;-72
2023/05/05 05:58:52;;;;;;;;;3.75;2.75;;;;;;;;6312536;22;8736;-73
2023/05/05 06:01:17;;;;;;;;;3.00;3.00;;;;;;;;6312374;22;8914;-73
2023/05/05 06:03:43;;;;;;;;;4.00;2.75;;;;;;;;6312305;22;8788;-73
2023/05/05 06:06:08;;;;;;;;;3.50;3.00;;;;;;;;6312944;22;8782;-73
2023/05/05 06:08:33;;;;;;;;;2.00;2.00;;;;;;;;6312806;22;8740;-73
2023/05/05 06:10:59;;;;;;;;;4.00;3.00;;;;;;;;6312311;22;8771;-73
2023/05/05 06:13:24;;;;;;;;;2.00;2.00;;;;;;;;6311937;22;8748;-73
2023/05/05 06:15:49;;;;;;;;;2.75;2.75;;;;;;;;6312703;22;11362;-73
2023/05/05 06:18:15;;;;;;;;;2.00;1.00;;;;;;;;6284739;22;9551;-73
2023/05/05 06:20:42;;;;;;;;;3.50;2.50;;;;;;;;6313049;22;8772;-73
2023/05/05 06:23:07;;;;;;;;;3.75;3.00;;;;;;;;6312583;22;9478;-72
2023/05/05 06:25:32;;;;;;;;;4.25;4.25;;;;;;;;6312776;22;10620;-73
2023/05/05 06:27:57;;;;;;;;;3.50;1.25;;;;;;;;6312200;22;8752;-73
2023/05/05 06:30:24;;;;;;;;;6.00;2.50;;;;;;;;6312283;22;9545;-72
2023/05/05 06:32:50;;;;;;;;;3.75;3.25;;;;;;;;6311524;22;8763;-72
2023/05/05 06:35:15;;;;;;;;;3.50;2.75;;;;;;;;6312560;22;10613;-72
2023/05/05 06:37:40;;;;;;;;;2.50;2.00;;;;;;;;6312859;22;8812;-73
2023/05/05 06:40:06;;;;;;;;;3.00;2.00;;;;;;;;6313054;22;8775;-72
2023/05/05 06:42:31;;;;;;;;;2.50;2.00;;;;;;;;6312661;22;8760;-72
2023/05/05 06:44:57;;;;;;;;;4.50;3.00;;;;;;;;6284460;22;10524;-73
2023/05/05 06:47:22;;;;;;;;;6.00;6.00;;;;;;;;6312584;22;8756;-72
2023/05/05 06:49:47;;;;;;;;;4.00;3.00;;;;;;;;6312713;22;9614;-73
2023/05/05 06:52:12;;;;;;;;;5.00;4.75;;;;;;;;6312669;22;8752;-72
2023/05/05 06:54:37;;;;;;;;;2.50;2.50;;;;;;;;6312756;22;8864;-72
2023/05/05 06:57:03;;;;;;;;;4.00;3.00;;;;;;;;6312777;22;8736;-72
2023/05/05 06:59:28;;;;;;;;;5.25;3.75;;;;;;;;6312482;22;8902;-72
2023/05/05 07:01:53;;;;;;;;;5.75;4.75;;;;;;;;6312504;22;8783;-73
2023/05/05 07:04:18;;;;;;;;;4.00;4.00;;;;;;;;6312813;22;8768;-73
2023/05/05 07:06:43;;;;;;;;;4.00;3.00;;;;;;;;6312630;22;8753;-73
2023/05/05 07:09:09;;;;;;;;;4.00;4.00;;;;;;;;6312742;22;8780;-72
2023/05/05 07:11:34;;;;;;;;;4.75;4.75;;;;;;;;6312065;22;8780;-73
2023/05/05 07:13:59;;;;;;;;;6.00;2.25;;;;;;;;6312265;22;8780;-73
2023/05/05 07:16:25;;;;;;;;;6.25;3.50;;;;;;;;6312446;22;8756;-72
2023/05/05 07:18:51;;;;;;;;;1.25;1.25;;;;;;;;6312562;22;8814;-72
2023/05/05 07:21:16;;;;;;;;;4.50;3.50;;;;;;;;6312496;22;10708;-72
2023/05/05 07:23:41;;;;;;;;;3.00;1.50;;;;;;;;6312873;22;8857;-72
2023/05/05 07:26:06;;;;;;;;;1.00;1.00;;;;;;;;6312355;22;8775;-72
2023/05/05 07:28:31;;;;;;;;;5.75;2.75;;;;;;;;6312328;22;8768;-72
2023/05/05 07:30:57;;;;;;;;;4.50;3.00;;;;;;;;6312020;22;8768;-73
2023/05/05 07:33:22;;;;;;;;;3.00;2.00;;;;;;;;6278976;22;8818;-72
2023/05/05 07:35:48;;;;;;;;;3.25;3.00;;;;;;;;6280945;22;8859;-73
2023/05/05 07:38:13;;;;;;;;;4.75;3.00;;;;;;;;6278458;22;10586;-72
2023/05/05 07:40:38;;;;;;;;;3.50;3.00;;;;;;;;6280964;22;8775;-72
2023/05/05 07:43:04;;;;;;;;;2.00;1.50;;;;;;;;6281287;22;8880;-72
2023/05/05 07:45:30;;;;;;;;;2.25;2.25;;;;;;;;6280874;22;8732;-73
2023/05/05 07:47:55;;;;;;;;;1.25;1.25;;;;;;;;6281421;22;9520;-73
2023/05/05 07:50:21;;;;;;;;;4.00;3.25;;;;;;;;6280927;22;10461;-73
2023/05/05 07:52:46;;;;;;;;;4.00;1.00;;;;;;;;6280658;22;8771;-72
2023/05/05 07:55:11;;;;;;;;;2.00;2.00;;;;;;;;6281083;22;8760;-72
2023/05/05 07:57:36;;;;;;;;;2.25;2.00;;;;;;;;6281328;22;8795;-73
2023/05/05 08:00:02;;;;;;;;;2.25;2.00;;;;;;;;6280758;22;8760;-73
2023/05/05 08:02:27;;;;;;;;;5.50;4.00;;;;;;;;6280829;22;8744;-73
2023/05/05 08:04:52;;;;;;;;;3.25;2.00;;;;;;;;6281006;22;8850;-73
2023/05/05 08:07:17;;;;;;;;;1.50;1.50;;;;;;;;6281212;22;8786;-73
2023/05/05 08:09:43;;;;;;;;;1.00;1.00;;;;;;;;6280801;22;9505;-72
2023/05/05 08:12:08;;;;;;;;;5.00;2.75;;;;;;;;6280751;22;8748;-72
2023/05/05 08:14:35;;;;;;;;;1.50;1.50;;;;;;;;6280538;22;8763;-72
2023/05/05 08:17:00;;;;;;;;;1.50;1.50;;;;;;;;6280661;22;8716;-72
2023/05/05 08:19:25;;;;;;;;;3.25;1.75;;;;;;;;6278128;22;10641;-71
2023/05/05 08:21:51;;;;;;;;;1.75;1.75;;;;;;;;6281226;22;8826;-71
2023/05/05 08:24:16;;;;;;;;;5.00;2.00;;;;;;;;6281142;22;8756;-72
2023/05/05 08:26:41;;;;;;;;;2.50;1.50;;;;;;;;6280712;22;8768;-71
2023/05/05 08:29:07;;;;;;;;;3.00;1.00;;;;;;;;6280463;22;8764;-71
2023/05/05 08:31:33;;;;;;;;;2.00;2.00;;;;;;;;6283122;22;8869;-72
2023/05/05 08:33:58;;;;;;;;;3.00;1.00;;;;;;;;6312294;22;8745;-72
2023/05/05 08:36:24;;;;;;;;;2.00;2.00;;;;;;;;6311893;22;10364;-72
2023/05/05 08:38:49;;;;;;;;;2.00;2.00;;;;;;;;6311958;22;8883;-72
2023/05/05 08:41:16;;;;;;;;;1.00;1.00;;;;;;;;6311056;22;8803;-72
2023/05/05 08:43:42;;;;;;;;;2.50;1.25;;;;;;;;6310085;22;8751;-72
2023/05/05 08:46:10;;;;;;;;;3.50;1.75;;;;;;;;6311235;22;10382;-72
2023/05/05 08:48:37;;;;;;;;;3.25;2.25;;;;;;;;6309961;22;10684;-72
2023/05/05 08:51:03;;;;;;;;;1.75;1.75;;;;;;;;6312367;22;10513;-72
2023/05/05 08:53:31;;;;;;;;;1.25;1.25;;;;;;;;6311466;22;10375;-72
2023/05/05 08:55:58;;;;;;;;;0.50;0.50;;;;;;;;6311680;22;8721;-72
2023/05/05 08:58:23;;;;;;;;;0.25;0.00;;;;;;;;6311052;22;10347;-76
2023/05/05 09:00:49;;;;;;;;;1.50;1.00;;;;;;;;6311539;22;10220;-72
2023/05/05 09:03:14;;;;;;;;;2.00;2.00;;;;;;;;6311231;22;8866;-71
2023/05/05 09:05:40;;;;;;;;;0.50;0.50;;;;;;;;6311180;22;8880;-72
2023/05/05 09:08:08;;;;;;;;;0.00;0.00;;;;;;;;6311353;22;8733;-71
2023/05/05 09:10:35;;;;;;;;;1.00;1.00;;;;;;;;6310775;22;10381;-72
2023/05/05 09:13:00;;;;;;;;;0.00;0.00;;;;;;;;6311599;22;10403;-76
2023/05/05 09:15:27;;;;;;;;;3.75;0.00;;;;;;;;6311656;22;10205;-72
2023/05/05 09:17:54;;;;;;;;;1.25;1.25;;;;;;;;6311930;22;8847;-75
2023/05/05 09:20:19;;;;;;;;;1.00;1.00;;;;;;;;6284727;22;10294;-74
2023/05/05 09:22:45;;;;;;;;;0.50;0.50;;;;;;;;6312947;22;10326;-74
2023/05/05 09:25:12;;;;;;;;;2.00;2.00;;;;;;;;6311868;22;8837;-73
2023/05/05 09:27:39;;;;;;;;;1.00;1.00;;;;;;;;6311250;22;11177;-72
2023/05/05 09:30:05;;;;;;;;;2.75;1.00;;;;;;;;6311919;22;10186;-75
2023/05/05 09:32:41;;;;;;;;;0.75;0.75;;;;;;;;6310979;22;10237;-73
2023/05/05 09:35:07;;;;;;;;;1.00;1.00;;;;;;;;6312553;22;8725;-70
2023/05/05 09:37:32;;;;;;;;;0.75;0.75;;;;;;;;6284686;22;10323;-70
2023/05/05 09:39:59;;;;;;;;;0.75;0.75;;;;;;;;6312149;22;8853;-72
2023/05/05 09:42:24;;;;;;;;;1.25;1.00;;;;;;;;6312448;22;8818;-73
2023/05/05 09:44:50;;;;;;;;;3.50;2.00;;;;;;;;6283745;22;10213;-73
2023/05/05 09:47:15;;;;;;;;;0.00;0.00;;;;;;;;6311933;22;8842;-73
2023/05/05 09:49:41;;;;;;;;;0.25;0.25;;;;;;;;6312159;22;8794;-72
2023/05/05 09:52:13;;;;;;;;;1.25;0.25;;;;;;;;6312417;22;8835;-72
2023/05/05 09:54:39;;;;;;;;;0.25;0.25;;;;;;;;6311793;22;8764;-73
2023/05/05 09:57:04;;;;;;;;;1.00;1.00;;;;;;;;6284566;22;10411;-72
2023/05/05 09:59:29;;;;;;;;;1.50;1.50;;;;;;;;6312201;22;8798;-72
2023/05/05 10:02:08;;;;;;;;;2.50;1.00;;;;;;;;6312165;22;8874;-72
2023/05/05 10:04:33;;;;;;;;;2.00;1.00;;;;;;;;6311623;22;8736;-73
2023/05/05 10:06:58;;;;;;;;;2.75;1.00;;;;;;;;6312464;22;10240;-73
2023/05/05 10:09:24;;;;;;;;;2.75;1.00;;;;;;;;6311636;22;8784;-72
2023/05/05 10:11:50;;;;;;;;;0.00;0.00;;;;;;;;6312444;22;8720;-72
2023/05/05 10:14:16;;;;;;;;;1.00;1.00;;;;;;;;6311728;22;11485;-73
2023/05/05 10:16:52;;;;;;;;;1.25;1.25;;;;;;;;6282937;22;9224;-72
2023/05/05 10:19:18;;;;;;;;;1.25;1.25;;;;;;;;6282173;22;10433;-72
2023/05/05 10:21:48;;;;;;;;;0.75;0.75;;;;;;;;6311438;22;10289;-72
2023/05/05 10:24:37;;;;;;;;;1.50;1.00;;;;;;;;6312587;22;10141;-73
2023/05/05 10:27:03;;;;;;;;;0.00;0.00;;;;;;;;6291561;22;10268;-72
2023/05/05 10:29:44;;;;;;;;;1.00;1.00;;;;;;;;6312591;22;10295;-73
2023/05/05 10:32:30;;;;;;;;;0.00;0.00;;;;;;;;6278550;22;11126;-73
2023/05/05 10:35:02;;;;;;;;;0.50;0.50;;;;;;;;6280164;22;10191;-73
2023/05/05 10:37:28;;;;;;;;;0.50;0.00;;;;;;;;6281624;22;10154;-73
2023/05/05 10:39:54;;;;;;;;;0.00;0.00;;;;;;;;6281796;22;10159;-73
2023/05/05 10:42:22;;;;;;;;;0.75;0.75;;;;;;;;6279580;22;8732;-72
2023/05/05 10:44:48;;;;;;;;;1.50;0.25;;;;;;;;6281147;22;10133;-73
2023/05/05 10:47:13;;;;;;;;;0.00;0.00;;;;;;;;6281738;22;10126;-73
2023/05/05 10:49:54;;;;;;;;;1.00;0.00;;;;;;;;6281482;22;8810;-73
2023/05/05 10:52:24;;;;;;;;;2.00;0.50;;;;;;;;6281301;22;8720;-72
2023/05/05 10:55:28;;;;;;;;;0.00;0.00;;;;;;;;6279784;22;10256;-73
2023/05/05 10:57:53;;;;;;;;;0.50;0.50;;;;;;;;6155857;23;10314;-73
2023/05/05 11:00:37;;;;;;;;;1.00;0.50;;;;;;;;6155863;23;10184;-72
2023/05/05 11:03:31;;;;;;;;;1.25;0.00;;;;;;;;6155645;23;8764;-71
2023/05/05 11:06:03;;;;;;;;;0.00;0.00;;;;;;;;6136756;23;10883;-73
2023/05/05 11:08:31;;;;;;;;;0.00;0.00;;;;;;;;6155833;23;10142;-72
2023/05/05 11:10:56;;;;;;;;;0.00;0.00;;;;;;;;6156623;23;10163;-73
2023/05/05 11:13:22;;;;;;;;;0.00;0.00;;;;;;;;6153719;23;10256;-72
2023/05/05 11:15:48;;;;;;;;;0.50;0.00;;;;;;;;6154930;23;8772;-72
2023/05/05 11:18:35;;;;;;;;;0.00;0.00;;;;;;;;6155468;23;8772;-73
2023/05/05 11:21:00;;;;;;;;;0.25;0.25;;;;;;;;6155234;23;11030;-73
2023/05/05 11:23:25;;;;;;;;;0.00;0.00;;;;;;;;6130195;23;10109;-73
2023/05/05 11:25:51;;;;;;;;;0.00;0.00;;;;;;;;6155202;23;8779;-73
2023/05/05 11:28:30;;;;;;;;;1.75;0.75;;;;;;;;6196285;22;8793;-72
2023/05/05 11:30:55;;;;;;;;;2.75;0.75;;;;;;;;6279588;22;8740;-73
2023/05/05 11:33:29;;;;;;;;;0.00;0.00;;;;;;;;6282234;22;10264;-72
2023/05/05 11:35:57;;;;;;;;;0.00;0.00;;;;;;;;6310214;22;8747;-73
2023/05/05 11:38:29;;;;;;;;;0.50;0.50;;;;;;;;6310240;22;10367;-73
2023/05/05 11:41:08;;;;;;;;;0.00;0.00;;;;;;;;6282497;22;10142;-72
2023/05/05 11:43:33;;;;;;;;;0.50;0.50;;;;;;;;6310881;22;10090;-72
2023/05/05 11:46:14;;;;;;;;;1.00;1.00;;;;;;;;6310848;22;10232;-73
2023/05/05 11:48:46;;;;;;;;;3.25;1.75;;;;;;;;6310613;22;8773;-72
2023/05/05 11:51:12;;;;;;;;;1.75;1.75;;;;;;;;6310406;22;10285;-72
2023/05/05 11:53:45;;;;;;;;;3.50;0.75;;;;;;;;6310652;22;10339;-72
2023/05/05 11:56:11;;;;;;;;;0.00;0.00;;;;;;;;6310425;22;11420;-72
2023/05/05 11:58:37;;;;;;;;;0.50;0.50;;;;;;;;6311283;22;10262;-72
2023/05/05 12:01:05;;;;;;;;;0.75;0.75;;;;;;;;6312051;22;10413;-72
2023/05/05 12:03:34;;;;;;;;;0.00;0.00;;;;;;;;6312174;22;8832;-72
2023/05/05 12:06:00;;;;;;;;;1.00;1.00;;;;;;;;6311718;22;10057;-72
2023/05/05 12:08:25;;;;;;;;;1.00;1.00;;;;;;;;6312534;22;10464;-72
2023/05/05 12:10:50;;;;;;;;;0.00;0.00;;;;;;;;6311402;22;8754;-73
2023/05/05 12:13:16;;;;;;;;;0.75;0.75;;;;;;;;6311170;22;8766;-72
2023/05/05 12:15:41;;;;;;;;;0.00;0.00;;;;;;;;6311206;22;8863;-73
2023/05/05 12:18:16;;;;;;;;;0.25;0.25;;;;;;;;6310385;22;8924;-73
2023/05/05 12:20:41;;;;;;;;;0.75;0.00;;;;;;;;6311585;22;8762;-73
2023/05/05 12:23:07;;;;;;;;;0.00;0.00;;;;;;;;6310385;22;10082;-73
2023/05/05 12:25:36;;;;;;;;;0.00;0.00;;;;;;;;6311000;22;8758;-73
2023/05/05 12:28:02;;;;;;;;;0.00;0.00;;;;;;;;6313234;22;8750;-73
2023/05/05 12:30:27;;;;;;;;;0.50;0.00;;;;;;;;6313028;22;10242;-72
2023/05/05 12:32:59;;;;;;;;;3.00;2.25;;;;;;;;6312925;22;8806;-72
2023/05/05 12:35:24;;;;;;;;;1.75;1.25;;;;;;;;6313424;22;8753;-72
2023/05/05 12:37:50;;;;;;;;;1.50;1.50;;;;;;;;6312948;22;10220;-73
2023/05/05 12:40:34;;;;;;;;;1.25;1.25;;;;;;;;6313344;22;8776;-73
2023/05/05 12:42:59;;;;;;;;;1.50;1.50;;;;;;;;6285349;22;8846;-73
2023/05/05 12:45:24;;;;;;;;;3.25;2.50;;;;;;;;6312552;22;10151;-72
2023/05/05 12:47:49;;;;;;;;;0.50;0.50;;;;;;;;6312580;22;8771;-72
2023/05/05 12:50:27;;;;;;;;;1.75;1.75;;;;;;;;6313410;22;8767;-72
2023/05/05 12:52:53;;;;;;;;;0.00;0.00;;;;;;;;6313215;22;8732;-72
2023/05/05 12:55:18;;;;;;;;;3.00;3.00;;;;;;;;6313395;22;10212;-72
2023/05/05 12:58:03;;;;;;;;;1.50;0.00;;;;;;;;6313204;22;9485;-72
2023/05/05 13:00:28;;;;;;;;;1.00;1.00;;;;;;;;6311816;22;8794;-72
2023/05/05 13:02:54;;;;;;;;;1.00;1.00;;;;;;;;6312937;22;10200;-72
2023/05/05 13:05:35;;;;;;;;;1.75;1.00;;;;;;;;6312776;22;8756;-72
2023/05/05 13:08:00;;;;;;;;;0.25;0.25;;;;;;;;6313161;22;10225;-72
2023/05/05 13:10:27;;;;;;;;;0.00;0.00;;;;;;;;6284517;22;10139;-72
2023/05/05 13:12:56;;;;;;;;;0.75;0.75;;;;;;;;6311365;22;8745;-72
2023/05/05 13:15:21;;;;;;;;;3.00;2.00;;;;;;;;6311371;22;10266;-73
2023/05/05 13:17:46;;;;;;;;;0.75;0.75;;;;;;;;6311667;22;10382;-72
2023/05/05 13:20:11;;;;;;;;;0.75;0.75;;;;;;;;6311726;22;8910;-72
2023/05/05 13:22:37;;;;;;;;;0.00;0.00;;;;;;;;6310978;22;8760;-72
2023/05/05 13:25:02;;;;;;;;;2.50;2.00;;;;;;;;6312783;22;8756;-72
2023/05/05 13:27:27;;;;;;;;;2.00;0.00;;;;;;;;6312420;22;8768;-72
2023/05/05 13:29:52;;;;;;;;;1.00;0.00;;;;;;;;6313149;22;8825;-72
2023/05/05 13:32:17;;;;;;;;;0.50;0.50;;;;;;;;6311834;22;8796;-72
2023/05/05 13:34:42;;;;;;;;;0.50;0.50;;;;;;;;6313239;22;8752;-72
2023/05/05 13:37:08;;;;;;;;;0.50;0.50;;;;;;;;6312297;22;9477;-72
2023/05/05 13:39:33;;;;;;;;;0.75;0.00;;;;;;;;6312549;22;8760;-72
2023/05/05 13:41:58;;;;;;;;;1.00;1.00;;;;;;;;6285095;22;8744;-72
2023/05/05 13:44:23;;;;;;;;;1.00;0.00;;;;;;;;6285108;22;8764;-73
2023/05/05 13:46:49;;;;;;;;;1.75;1.00;;;;;;;;6312563;22;8756;-72
2023/05/05 13:49:14;;;;;;;;;0.00;0.00;;;;;;;;6311806;22;9316;-72
2023/05/05 13:51:39;;;;;;;;;1.75;1.75;;;;;;;;6311919;22;8757;-72
2023/05/05 13:54:05;;;;;;;;;2.00;1.25;;;;;;;;6311854;22;8821;-73
2023/05/05 13:56:30;;;;;;;;;1.00;1.00;;;;;;;;6312011;22;9496;-72
2023/05/05 13:58:56;;;;;;;;;0.25;0.25;;;;;;;;6312432;22;10656;-72
2023/05/05 14:01:21;;;;;;;;;1.00;1.00;;;;;;;;6311655;22;8748;-73
2023/05/05 14:03:46;;;;;;;;;0.25;0.25;;;;;;;;6311979;22;9501;-72
2023/05/05 14:06:11;;;;;;;;;0.00;0.00;;;;;;;;6311690;22;8834;-72
2023/05/05 14:08:37;;;;;;;;;0.50;0.50;;;;;;;;6311398;22;8744;-72
2023/05/05 14:11:02;;;;;;;;;0.00;0.00;;;;;;;;6283591;22;8737;-72
2023/05/05 14:13:27;;;;;;;;;2.75;0.00;;;;;;;;6283729;22;8764;-72
2023/05/05 14:15:53;;;;;;;;;0.00;0.00;;;;;;;;6283585;22;8764;-72
2023/05/05 14:18:18;;;;;;;;;0.00;0.00;;;;;;;;6311935;22;8752;-72
2023/05/05 14:20:43;;;;;;;;;0.25;0.25;;;;;;;;6311890;22;8798;-73
2023/05/05 14:23:08;;;;;;;;;0.75;0.75;;;;;;;;6311955;22;8752;-73
2023/05/05 14:25:33;;;;;;;;;0.75;0.75;;;;;;;;6283652;22;8760;-71
2023/05/05 14:27:59;;;;;;;;;0.75;0.75;;;;;;;;6311232;22;8787;-71
2023/05/05 14:30:24;;;;;;;;;0.00;0.00;;;;;;;;6311524;22;8774;-71
2023/05/05 14:32:49;;;;;;;;;0.75;0.75;;;;;;;;6311985;22;8797;-71
2023/05/05 14:35:14;;;;;;;;;0.75;0.75;;;;;;;;6312604;22;8740;-71
2023/05/05 14:37:40;;;;;;;;;0.00;0.00;;;;;;;;6312036;22;8756;-71
2023/05/05 14:40:06;;;;;;;;;1.50;0.00;;;;;;;;6311297;22;8760;-69
2023/05/05 14:42:31;;;;;;;;;0.00;0.00;;;;;;;;6311142;22;8787;-69
2023/05/05 14:44:56;;;;;;;;;1.25;0.25;;;;;;;;6311140;22;8845;-70
2023/05/05 14:47:21;;;;;;;;;1.50;0.00;;;;;;;;6311459;22;8753;-72
2023/05/05 14:49:46;;;;;;;;;0.00;0.00;;;;;;;;6284177;22;8767;-70
2023/05/05 14:52:12;;;;;;;;;0.00;0.00;;;;;;;;6285013;22;8786;-70